Latest Coastal Weather Observations for Cairns

IDQ60701

Issued at 11:51 pm EST Wednesday 26 April 2017 (issued every 10 minutes, with the page automatically refreshed every 10 minutes)

About coastal observations | Map of coastal stations | Coastal observations for QLD | Marine services | Other Formats
Station Details ID: 031011 Name: CAIRNS AERO Lat: -16.87 Lon: 145.75 Height: 2.22 m
Data from the previous 72 hours. | See also: Recent months at Cairns
Date/Time
EST
Temp
°C
Wind Pressure Rain since
9am
mm
Weather Cloud Vis
km
Sea
Height
m
Swell
Dir  Spd
kts
Gust
kts
hPa Trend Height
m
Period
s
Dir
26/11:30pm 21.4 CALM 0 0 1013.5 - 0.0 - - 10 - - - -
26/11:00pm 21.5 CALM 0 0 1013.8 - 0.0 - - 10 - - - -
26/10:30pm 21.6 CALM 0 0 1013.7 - 0.0 - - 10 - - - -
26/10:00pm 21.7 CALM 0 0 1013.9 - 0.0 - - 10 - - - -
26/09:30pm 22.3 W 2 4 1014.1 - 0.0 - - 10 - - - -
26/09:00pm 22.8 W 3 4 1014.0 R 0.0 - Partly cloudy 10 - - - -
26/08:30pm 23.5 SSE 4 6 1014.0 - 0.0 - - 10 - - - -
26/08:00pm 23.8 SSE 3 6 1013.6 - 0.0 - - 10 - - - -
26/07:30pm 23.7 SSE 4 5 1013.3 - 0.0 - Mostly clear 10 - - - -
26/07:00pm 23.3 CALM 0 0 1012.8 - 0.0 - Mostly clear 10 - - - -
26/06:30pm 24.3 ESE 4 5 1012.5 - 0.0 - Mostly clear 10 - - - -
26/06:00pm 25.2 S 5 7 1012.2 S 0.0 - Mostly clear 10 - - - -
26/05:30pm 25.7 S 5 8 1011.6 - 0.0 - Mostly clear 10 - - - -
26/05:00pm 26.5 SSE 5 8 1011.5 - 0.0 - Mostly clear 10 - - - -
26/04:30pm 27.2 SE 7 9 1011.3 - 0.0 - Mostly clear 10 - - - -
26/04:00pm 27.9 ESE 7 9 1011.3 - 0.0 - Mostly clear 10 - - - -
26/03:30pm 28.1 ENE 8 11 1011.2 - 0.0 - Mostly clear 10 - - - -
26/03:00pm 27.7 ENE 9 12 1011.3 F 0.0 - Mostly clear 10 - - - -
26/02:30pm 28.7 E 6 10 1011.6 - 0.0 - Mostly clear 10 - - - -
26/02:00pm 28.7 SE 7 11 1011.9 - 0.0 - Mostly clear 10 - - - -
26/01:30pm 28.0 E 6 12 1012.2 - 0.0 - Mostly clear 10 - - - -
26/01:00pm 28.2 ESE 5 7 1012.8 - 0.0 - Mostly clear 10 - - - -
26/12:30pm 28.3 ENE 5 7 1013.2 - 0.0 - Mostly clear 10 - - - -
26/12:00pm 27.7 NE 5 7 1013.8 F 0.0 - Mostly cloudy 10 - - - -
26/11:30am 27.7 E 5 14 1014.3 - 0.0 - Mostly clear 10 - - - -
26/11:00am 26.8 SE 6 9 1014.9 - 0.0 - Mostly clear 10 - - - -
26/10:30am 26.1 S 6 8 1015.1 - 0.0 - Mostly clear 10 - - - -
26/10:00am 25.7 CALM 0 0 1015.2 - 0.0 - Mostly clear 10 - - - -
26/09:30am 23.9 SSE 4 6 1015.4 - 0.0 - Mostly clear 10 - - - -
26/09:00am 23.2 SE 7 9 1015.3 R 3.2 - Mostly clear 10 - - - -
26/08:30am 22.2 SSE 6 9 1015.3 - 3.2 - Mostly clear 10 - - - -
26/08:00am 22.0 SSE 6 9 1015.0 - 3.2 - Mostly clear 10 - - - -
26/07:30am 20.7 WNW 2 4 1014.7 - 3.2 - Mostly clear 10 - - - -
26/07:00am 20.2 W 3 5 1014.5 - 3.2 - Mostly clear 10 - - - -
26/06:30am 20.0 W 3 5 1014.2 - 3.2 - Mostly clear 10 - - - -
26/06:00am 20.1 SSE 4 7 1013.6 F 3.2 - Mostly clear 10 - - - -
26/05:30am 20.3 SE 7 11 1013.4 - 3.2 - Mostly clear 10 - - - -
26/05:00am 20.3 SE 11 13 1013.3 - 3.2 - Mostly clear 10 - - - -
26/04:30am 20.5 SSE 7 11 1013.3 - 3.2 - Mostly clear 10 - - - -
26/04:00am 20.6 S 5 9 1013.6 - 3.2 - Mostly clear 10 - - - -
26/03:30am 20.7 SE 11 13 1013.5 - 3.2 - Mostly clear 10 - - - -
26/03:00am 20.7 SE 9 12 1013.5 R 3.2 - Mostly clear 10 - - - -
26/02:30am 20.6 WSW 1 4 1013.5 - 3.2 - Mostly clear 10 - - - -
26/02:00am 21.1 S 4 7 1014.0 - 3.2 - Mostly clear 10 - - - -
26/01:30am 21.2 S 3 7 1014.2 - 3.2 - Mostly clear 10 - - - -
26/01:00am 21.4 SE 9 10 1014.5 - 3.2 - Mostly clear 10 - - - -
26/12:30am 21.6 SE 9 10 1014.8 - 3.2 - Mostly clear 10 - - - -
26/12:00am 22.0 SE 9 10 1014.9 F 3.2 - Mostly clear 10 - - - -
 
Date/Time
EST
Temp
°C
Wind Pressure Rain since
9am
mm
Weather Cloud Vis
km
Sea
Height
m
Swell
Dir  Spd
kts
Gust
kts
hPa Trend Height
m
Period
s
Dir
25/11:30pm 22.1 SE 9 10 1015.2 - 3.2 - Mostly clear 10 - - - -
25/11:00pm 22.4 SE 7 8 1015.5 - 3.2 - Mostly clear 10 - - - -
25/10:30pm 23.6 SSE 7 10 1015.6 - 3.2 - Mostly clear 10 - - - -
25/10:00pm 23.5 S 6 8 1015.7 - 3.2 - Mostly clear 10 - - - -
25/09:30pm 24.1 S 8 14 1015.7 - 3.2 - Mostly clear 10 - - - -
25/09:00pm 24.2 S 8 13 1015.7 R 3.2 - Mostly clear 10 - - - -
25/08:30pm 23.9 S 7 10 1015.4 - 3.2 - Mostly clear 10 - - - -
25/08:00pm 24.2 SSE 6 10 1014.9 - 3.2 - Mostly clear 10 - - - -
25/07:30pm 24.4 SSE 8 14 1014.7 - 3.2 - Mostly clear 10 - - - -
25/07:00pm 24.6 SSE 9 13 1014.5 - 3.2 - Mostly clear 10 - - - -
25/06:30pm 24.8 SSE 8 10 1014.1 - 3.2 - Mostly clear 10 - - - -
25/06:00pm 25.3 SE 8 10 1013.8 R 3.2 - Mostly cloudy 10 - - - -
25/05:30pm 25.6 SE 10 14 1013.4 - 3.2 - Mostly clear 10 - - - -
25/05:00pm 26.2 ESE 13 16 1013.0 - 3.2 - Mostly clear 10 - - - -
25/04:30pm 26.8 ESE 14 17 1012.7 - 3.2 - Mostly clear 10 - - - -
25/04:00pm 27.2 ESE 11 16 1012.6 - 3.2 - Mostly clear 10 - - - -
25/03:30pm 27.6 SE 10 14 1012.5 - 3.2 - Mostly clear 10 - - - -
25/03:00pm 27.6 SE 11 14 1012.6 F 3.2 - Mostly cloudy 10 - - - -
25/02:30pm 27.2 ESE 8 10 1012.8 - 3.2 - Mostly clear 10 - - - -
25/02:00pm 27.4 SE 8 10 1013.1 - 3.2 - Partly cloudy 10 - - - -
25/01:30pm 26.8 SSE 6 10 1013.5 - 3.2 - Mostly clear 10 - - - -
25/01:00pm 27.2 S 8 12 1013.8 - 3.2 - Mostly clear 10 - - - -
25/12:30pm 26.7 SSE 13 18 1014.2 - 3.2 - Partly cloudy 10 - - - -
25/12:00pm 27.4 ESE 8 10 1014.5 F 3.2 Rain Mostly cloudy 10 - - - -
25/11:30am 27.3 ESE 9 15 1015.1 - 3.0 - Mostly clear 10 - - - -
25/11:00am 25.5 SSE 6 8 1015.7 - 3.0 - Mostly clear 10 - - - -
25/10:43am 24.0 SE 7 9 1016.0 - 3.0 - Mostly clear 10 - - - -
25/10:30am 24.4 ESE 10 14 1016.2 - 0.8 Showers Mostly clear 4 - - - -
25/10:19am 25.2 SSE 8 14 1016.1 - 0.0 Showers Mostly clear 5 - - - -
25/10:00am 26.8 SSE 10 14 1015.9 - 0.0 - Mostly clear 10 - - - -
25/09:30am 25.8 S 7 11 1016.0 - 0.0 - Mostly clear 10 - - - -
25/09:00am 26.0 S 9 13 1016.0 S 1.0 - Cloudy 10 - - - -
25/08:30am 24.6 S 8 11 1015.7 - 1.0 - Mostly clear 10 - - - -
25/08:00am 24.6 SSE 8 13 1015.7 - 1.0 - Mostly clear 10 - - - -
25/07:30am 23.3 SSE 6 10 1015.6 - 1.0 - Mostly clear 10 - - - -
25/07:00am 23.0 S 10 16 1015.3 - 1.0 - Mostly clear 10 - - - -
25/06:30am 23.0 SSE 9 14 1015.0 - 0.4 - Mostly clear 10 - - - -
25/06:00am 23.0 SSE 7 10 1014.4 R 0.4 - Mostly clear 10 - - - -
25/05:30am 23.6 S 9 14 1013.9 - 0.4 - Mostly clear 10 - - - -
25/05:00am 23.6 S 9 14 1013.7 - 0.4 - Mostly clear 10 - - - -
25/04:30am 23.5 S 7 13 1013.5 - 0.4 - Mostly clear 10 - - - -
25/04:00am 23.6 S 9 15 1013.5 - 0.4 - Mostly clear 10 - - - -
25/03:30am 23.3 SSE 7 10 1013.4 - 0.4 - Mostly clear 10 - - - -
25/03:00am 23.3 S 9 15 1013.2 F 0.4 - Mostly clear 10 - - - -
25/02:30am 23.6 S 10 15 1013.2 - 0.4 - Mostly clear 10 - - - -
25/02:00am 23.6 S 11 16 1013.5 - 0.4 - Mostly clear 10 - - - -
25/01:30am 23.2 S 11 17 1014.0 - 0.4 - Mostly clear 10 - - - -
25/01:00am 23.6 S 9 15 1014.4 - 0.4 - Mostly clear 10 - - - -
25/12:30am 24.0 S 9 13 1014.9 - 0.4 - Mostly clear 10 - - - -
25/12:00am 24.2 S 9 13 1015.2 F 0.4 - Partly cloudy 10 - - - -
 
Date/Time
EST
Temp
°C
Wind Pressure Rain since
9am
mm
Weather Cloud Vis
km
Sea
Height
m
Swell
Dir  Spd
kts
Gust
kts
hPa Trend Height
m
Period
s
Dir
24/11:30pm 24.1 S 10 15 1015.5 - 0.4 - Mostly clear 10 - - - -
24/11:00pm 23.9 S 9 17 1015.7 - 0.4 - Mostly clear 10 - - - -
24/10:30pm 24.0 S 9 14 1015.8 - 0.4 - Mostly clear 10 - - - -
24/10:00pm 24.1 S 10 15 1015.9 - 0.4 - Mostly clear 10 - - - -
24/09:30pm 24.0 S 11 15 1016.0 - 0.4 - Mostly clear 10 - - - -
24/09:00pm 24.3 S 9 13 1016.0 F 0.4 - Mostly clear 10 - - - -
24/08:30pm 24.3 S 7 13 1015.9 - 0.4 - Mostly clear 10 - - - -
24/08:00pm 24.2 S 9 14 1015.5 - 0.4 - Mostly clear 10 - - - -
24/07:30pm 24.1 SSE 6 9 1015.4 - 0.4 - Mostly clear 10 - - - -
24/07:00pm 24.7 SSE 8 11 1015.1 - 0.4 - Mostly clear 10 - - - -
24/06:30pm 25.1 SE 13 15 1014.9 - 0.4 - Mostly clear 10 - - - -
24/06:00pm 25.3 SE 12 15 1014.7 R 0.4 - Mostly clear 10 - - - -
24/05:30pm 26.0 SE 11 15 1014.5 - 0.4 - Mostly clear 10 - - - -
24/05:00pm 27.0 ESE 12 15 1014.2 - 0.4 - Mostly clear 10 - - - -
24/04:30pm 27.6 SE 13 18 1013.8 - 0.4 - Mostly clear 10 - - - -
24/04:00pm 27.8 ESE 12 17 1013.5 - 0.4 - Mostly clear 10 - - - -
24/03:30pm 27.2 SE 11 15 1013.6 - 0.4 - Mostly clear 10 - - - -
24/03:00pm 27.9 SE 12 19 1013.6 R 0.4 - Mostly cloudy 10 - - - -
24/02:30pm 27.8 SE 15 20 1013.7 - 0.4 - Mostly clear 10 - - - -
24/02:00pm 28.8 SE 15 22 1013.9 - 0.4 - Partly cloudy 10 - - - -
24/01:30pm 29.0 SE 13 19 1014.3 - 0.4 - Partly cloudy 10 - - - -
24/01:00pm 28.2 ESE 12 18 1014.6 - 0.2 - Partly cloudy 10 - - - -
24/12:30pm 26.3 ESE 11 17 1015.1 - 0.2 - Partly cloudy 10 - - - -
24/12:00pm 26.7 SE 13 18 1015.3 R 0.2 Rain Cloudy 10 - - - -
24/11:30am 25.5 SSE 11 16 1015.8 - 0.2 - Partly cloudy 10 - - - -
24/11:00am 27.8 SE 12 17 1015.8 - 0.0 - Partly cloudy 10 - - - -
24/10:30am 27.0 SE 13 16 1016.2 - 0.0 - Partly cloudy 10 - - - -
24/10:00am 27.7 SE 13 17 1016.3 - 0.0 - Partly cloudy 10 - - - -
24/09:30am 26.3 SSE 11 15 1016.2 - 0.0 - Partly cloudy 10 - - - -
24/09:00am 26.3 SSE 11 15 1016.0 R 0.2 - Partly cloudy 10 - - - -
24/08:30am 25.3 SSE 9 15 1015.9 - 0.2 - Partly cloudy 10 - - - -
24/08:00am 24.3 SSE 9 14 1015.7 - 0.2 - Mostly clear 10 - - - -
24/07:30am 24.0 S 12 18 1015.4 - 0.2 - Mostly clear 10 - - - -
24/07:00am 23.4 S 11 16 1015.0 - 0.2 - Mostly clear 10 - - - -
24/06:30am 23.5 S 10 17 1014.8 - 0.2 - Mostly clear 10 - - - -
24/06:00am 23.3 S 9 15 1014.3 F 0.2 Showers Mostly cloudy 10 - - - -
24/05:30am 23.3 S 9 14 1014.1 - 0.2 - Mostly clear 10 - - - -
24/05:00am 23.2 SSE 7 10 1014.1 - 0.2 - Mostly clear 10 - - - -
24/04:30am 23.4 S 8 14 1014.0 - 0.2 - Mostly clear 10 - - - -
24/04:00am 23.2 SSE 8 12 1014.1 - 0.2 - Mostly clear 10 - - - -
24/03:30am 23.4 SSE 9 13 1014.1 - 0.2 - Mostly clear 10 - - - -
24/03:00am 23.7 S 9 16 1014.1 F 0.2 - Mostly clear 10 - - - -
24/02:30am 23.7 S 9 15 1014.4 - 0.2 - Mostly clear 10 - - - -
24/02:00am 23.5 S 10 16 1014.6 - 0.2 - Mostly clear 10 - - - -
24/01:30am 23.7 SSE 8 13 1015.1 - 0.2 - Mostly clear 10 - - - -
24/01:00am 24.2 S 9 15 1015.4 - 0.2 - Mostly clear 10 - - - -
24/12:30am 23.9 S 8 13 1015.8 - 0.2 - Mostly clear 10 - - - -
24/12:00am 23.9 SSE 9 13 1016.1 F 0.2 - Mostly clear 10 - - - -

Other Formats:

Comma delimited format used in spreadsheet applications
http://www.bom.gov.au/fwo/IDQ60701/IDQ60701.94287.axf

JavaScript Object Notation format (JSON) in row-major order
http://www.bom.gov.au/fwo/IDQ60701/IDQ60701.94287.json